Terminal Aerodrome Forecast
Issued by NWS

Home | Current Version | Previous Version | Text Only | Print | Product List | Glossary On
Versions: 1 2 3 4 5 6 7 8 9 10 11 12 13 14 15 16 17 18 19 20 21 22
000
FTUS42 KTBW 181700
TAFPGD
TAF
KPGD 181735Z 1818/1918 VRB04KT P6SM SCT035
     FM182100 29007KT P6SM VCTS SCT045CB BKN150
     FM190100 05003KT P6SM VCSH BKN040 BKN250
     FM191300 07007KT P6SM VCSH BKN040 BKN070=

USA.gov is the U.S. government's official web portal to all federal, state and local government web resources and services.